sensor_id;sensor_type;location;lat;lon;timestamp;P1;durP1;ratioP1;P2;durP2;ratioP2
10725;SDS011;5414;59.782;16.378;2023-01-10T00:01:23;3.03;;;2.63;;
10725;SDS011;5414;59.782;16.378;2023-01-10T00:03:50;2.93;;;2.50;;
10725;SDS011;5414;59.782;16.378;2023-01-10T00:06:16;3.80;;;2.37;;
10725;SDS011;5414;59.782;16.378;2023-01-10T00:08:42;2.97;;;2.40;;
10725;SDS011;5414;59.782;16.378;2023-01-10T00:11:08;3.57;;;2.77;;
10725;SDS011;5414;59.782;16.378;2023-01-10T00:13:54;2.60;;;2.00;;
10725;SDS011;5414;59.782;16.378;2023-01-10T00:16:21;3.63;;;2.10;;
10725;SDS011;5414;59.782;16.378;2023-01-10T00:18:47;3.97;;;2.30;;
10725;SDS011;5414;59.782;16.378;2023-01-10T00:21:13;2.93;;;1.87;;
10725;SDS011;5414;59.782;16.378;2023-01-10T00:23:40;2.57;;;2.17;;
10725;SDS011;5414;59.782;16.378;2023-01-10T00:26:07;3.13;;;1.80;;
10725;SDS011;5414;59.782;16.378;2023-01-10T00:28:33;3.60;;;2.27;;
10725;SDS011;5414;59.782;16.378;2023-01-10T00:31:00;2.77;;;2.07;;
10725;SDS011;5414;59.782;16.378;2023-01-10T00:33:32;2.20;;;1.97;;
10725;SDS011;5414;59.782;16.378;2023-01-10T00:35:58;2.83;;;2.10;;
10725;SDS011;5414;59.782;16.378;2023-01-10T00:38:25;3.20;;;2.10;;
10725;SDS011;5414;59.782;16.378;2023-01-10T00:40:51;2.80;;;2.00;;
10725;SDS011;5414;59.782;16.378;2023-01-10T00:43:17;2.30;;;2.00;;
10725;SDS011;5414;59.782;16.378;2023-01-10T00:46:01;2.47;;;1.80;;
10725;SDS011;5414;59.782;16.378;2023-01-10T00:48:27;2.23;;;1.63;;
10725;SDS011;5414;59.782;16.378;2023-01-10T00:50:54;2.80;;;2.20;;
10725;SDS011;5414;59.782;16.378;2023-01-10T00:53:20;2.90;;;2.10;;
10725;SDS011;5414;59.782;16.378;2023-01-10T00:55:46;2.43;;;1.80;;
10725;SDS011;5414;59.782;16.378;2023-01-10T00:58:13;3.27;;;2.07;;
10725;SDS011;5414;59.782;16.378;2023-01-10T01:00:39;2.47;;;1.77;;
10725;SDS011;5414;59.782;16.378;2023-01-10T01:03:06;2.17;;;1.50;;
10725;SDS011;5414;59.782;16.378;2023-01-10T01:05:32;2.13;;;1.53;;
10725;SDS011;5414;59.782;16.378;2023-01-10T01:07:58;1.90;;;1.67;;
10725;SDS011;5414;59.782;16.378;2023-01-10T01:10:24;2.73;;;1.87;;
10725;SDS011;5414;59.782;16.378;2023-01-10T01:12:50;2.30;;;2.00;;
10725;SDS011;5414;59.782;16.378;2023-01-10T01:15:16;1.83;;;1.70;;
10725;SDS011;5414;59.782;16.378;2023-01-10T01:17:42;2.00;;;1.70;;
10725;SDS011;5414;59.782;16.378;2023-01-10T01:20:09;2.20;;;1.60;;
10725;SDS011;5414;59.782;16.378;2023-01-10T01:22:35;2.73;;;1.83;;
10725;SDS011;5414;59.782;16.378;2023-01-10T01:25:02;2.20;;;1.60;;
10725;SDS011;5414;59.782;16.378;2023-01-10T01:27:28;3.00;;;2.20;;
10725;SDS011;5414;59.782;16.378;2023-01-10T01:29:55;2.10;;;1.90;;
10725;SDS011;5414;59.782;16.378;2023-01-10T01:32:22;2.30;;;2.00;;
10725;SDS011;5414;59.782;16.378;2023-01-10T01:34:48;1.87;;;1.67;;
10725;SDS011;5414;59.782;16.378;2023-01-10T01:37:15;2.50;;;2.00;;
10725;SDS011;5414;59.782;16.378;2023-01-10T01:39:43;2.77;;;2.10;;
10725;SDS011;5414;59.782;16.378;2023-01-10T01:42:19;2.43;;;2.17;;
10725;SDS011;5414;59.782;16.378;2023-01-10T01:45:02;2.73;;;1.80;;
10725;SDS011;5414;59.782;16.378;2023-01-10T01:47:32;2.50;;;2.10;;
10725;SDS011;5414;59.782;16.378;2023-01-10T01:49:58;2.37;;;2.10;;
10725;SDS011;5414;59.782;16.378;2023-01-10T01:52:25;2.67;;;2.17;;
10725;SDS011;5414;59.782;16.378;2023-01-10T01:54:52;2.63;;;2.17;;
10725;SDS011;5414;59.782;16.378;2023-01-10T01:57:20;2.90;;;2.13;;
10725;SDS011;5414;59.782;16.378;2023-01-10T01:59:48;2.20;;;1.97;;
10725;SDS011;5414;59.782;16.378;2023-01-10T02:02:18;2.20;;;1.90;;
10725;SDS011;5414;59.782;16.378;2023-01-10T02:05:27;2.23;;;2.03;;
10725;SDS011;5414;59.782;16.378;2023-01-10T02:07:37;2.10;;;1.90;;
10725;SDS011;5414;59.782;16.378;2023-01-10T02:10:06;2.13;;;1.93;;
10725;SDS011;5414;59.782;16.378;2023-01-10T02:12:34;2.07;;;1.87;;
10725;SDS011;5414;59.782;16.378;2023-01-10T02:15:00;2.47;;;2.23;;
10725;SDS011;5414;59.782;16.378;2023-01-10T02:17:28;2.90;;;2.23;;
10725;SDS011;5414;59.782;16.378;2023-01-10T02:20:01;2.60;;;2.40;;
10725;SDS011;5414;59.782;16.378;2023-01-10T02:35:31;2.50;;;2.10;;
10725;SDS011;5414;59.782;16.378;2023-01-10T02:43:29;2.40;;;2.20;;
10725;SDS011;5414;59.782;16.378;2023-01-10T02:46:10;1.97;;;1.77;;
10725;SDS011;5414;59.782;16.378;2023-01-10T02:48:39;1.87;;;1.77;;
10725;SDS011;5414;59.782;16.378;2023-01-10T02:51:18;1.93;;;1.80;;
10725;SDS011;5414;59.782;16.378;2023-01-10T02:53:49;1.97;;;1.77;;
10725;SDS011;5414;59.782;16.378;2023-01-10T03:09:31;2.23;;;1.80;;
10725;SDS011;5414;59.782;16.378;2023-01-10T03:12:18;2.00;;;1.60;;
10725;SDS011;5414;59.782;16.378;2023-01-10T03:14:46;1.60;;;1.50;;
10725;SDS011;5414;59.782;16.378;2023-01-10T03:17:12;1.80;;;1.50;;
10725;SDS011;5414;59.782;16.378;2023-01-10T03:19:42;1.40;;;1.30;;
10725;SDS011;5414;59.782;16.378;2023-01-10T03:22:09;1.87;;;1.43;;
10725;SDS011;5414;59.782;16.378;2023-01-10T03:24:47;1.70;;;1.50;;
10725;SDS011;5414;59.782;16.378;2023-01-10T03:29:49;1.40;;;1.30;;
10725;SDS011;5414;59.782;16.378;2023-01-10T03:32:16;2.13;;;1.87;;
10725;SDS011;5414;59.782;16.378;2023-01-10T03:34:45;1.70;;;1.60;;
10725;SDS011;5414;59.782;16.378;2023-01-10T03:39:48;1.97;;;1.73;;
10725;SDS011;5414;59.782;16.378;2023-01-10T03:42:19;1.87;;;1.60;;
10725;SDS011;5414;59.782;16.378;2023-01-10T03:49:46;2.13;;;1.93;;
10725;SDS011;5414;59.782;16.378;2023-01-10T03:52:14;2.30;;;2.07;;
10725;SDS011;5414;59.782;16.378;2023-01-10T03:54:44;2.23;;;2.03;;
10725;SDS011;5414;59.782;16.378;2023-01-10T03:57:22;2.20;;;2.00;;
10725;SDS011;5414;59.782;16.378;2023-01-10T03:59:50;2.40;;;2.20;;
10725;SDS011;5414;59.782;16.378;2023-01-10T04:02:17;2.43;;;2.10;;
10725;SDS011;5414;59.782;16.378;2023-01-10T04:04:44;2.83;;;2.00;;
10725;SDS011;5414;59.782;16.378;2023-01-10T04:07:10;2.50;;;2.30;;
10725;SDS011;5414;59.782;16.378;2023-01-10T04:09:36;2.57;;;2.37;;
10725;SDS011;5414;59.782;16.378;2023-01-10T04:12:02;2.53;;;2.00;;
10725;SDS011;5414;59.782;16.378;2023-01-10T04:14:28;2.93;;;2.30;;
10725;SDS011;5414;59.782;16.378;2023-01-10T04:16:56;2.47;;;2.23;;
10725;SDS011;5414;59.782;16.378;2023-01-10T04:19:23;2.40;;;2.20;;
10725;SDS011;5414;59.782;16.378;2023-01-10T04:21:49;2.40;;;2.10;;
10725;SDS011;5414;59.782;16.378;2023-01-10T04:24:15;2.40;;;2.20;;
10725;SDS011;5414;59.782;16.378;2023-01-10T04:26:42;2.47;;;1.80;;
10725;SDS011;5414;59.782;16.378;2023-01-10T04:29:10;2.40;;;2.20;;
10725;SDS011;5414;59.782;16.378;2023-01-10T04:31:36;2.00;;;1.80;;
10725;SDS011;5414;59.782;16.378;2023-01-10T04:34:04;2.53;;;1.83;;
10725;SDS011;5414;59.782;16.378;2023-01-10T04:36:30;2.30;;;2.00;;
10725;SDS011;5414;59.782;16.378;2023-01-10T04:38:56;3.47;;;2.17;;
10725;SDS011;5414;59.782;16.378;2023-01-10T04:41:22;2.20;;;2.00;;
10725;SDS011;5414;59.782;16.378;2023-01-10T04:43:48;2.43;;;2.00;;
10725;SDS011;5414;59.782;16.378;2023-01-10T04:46:14;2.20;;;2.00;;
10725;SDS011;5414;59.782;16.378;2023-01-10T04:48:40;2.20;;;2.00;;
10725;SDS011;5414;59.782;16.378;2023-01-10T04:51:06;2.30;;;2.00;;
10725;SDS011;5414;59.782;16.378;2023-01-10T04:53:32;2.10;;;1.90;;
10725;SDS011;5414;59.782;16.378;2023-01-10T04:56:05;2.20;;;2.00;;
10725;SDS011;5414;59.782;16.378;2023-01-10T04:58:35;2.20;;;2.00;;
10725;SDS011;5414;59.782;16.378;2023-01-10T05:01:14;1.90;;;1.70;;
10725;SDS011;5414;59.782;16.378;2023-01-10T05:03:43;2.07;;;1.87;;
10725;SDS011;5414;59.782;16.378;2023-01-10T05:06:09;2.70;;;1.90;;
10725;SDS011;5414;59.782;16.378;2023-01-10T05:08:35;3.00;;;2.20;;
10725;SDS011;5414;59.782;16.378;2023-01-10T05:11:01;3.50;;;2.20;;
10725;SDS011;5414;59.782;16.378;2023-01-10T05:13:27;2.47;;;2.10;;
10725;SDS011;5414;59.782;16.378;2023-01-10T05:15:55;2.73;;;2.33;;
10725;SDS011;5414;59.782;16.378;2023-01-10T05:18:22;2.80;;;2.50;;
10725;SDS011;5414;59.782;16.378;2023-01-10T05:20:48;2.50;;;2.30;;
10725;SDS011;5414;59.782;16.378;2023-01-10T05:23:14;2.87;;;2.30;;
10725;SDS011;5414;59.782;16.378;2023-01-10T05:25:40;2.50;;;2.30;;
10725;SDS011;5414;59.782;16.378;2023-01-10T05:28:06;2.63;;;2.43;;
10725;SDS011;5414;59.782;16.378;2023-01-10T05:30:32;2.57;;;2.33;;
10725;SDS011;5414;59.782;16.378;2023-01-10T05:32:58;3.33;;;2.30;;
10725;SDS011;5414;59.782;16.378;2023-01-10T05:35:24;3.73;;;2.50;;
10725;SDS011;5414;59.782;16.378;2023-01-10T05:37:50;3.33;;;2.50;;
10725;SDS011;5414;59.782;16.378;2023-01-10T05:40:17;2.47;;;2.27;;
10725;SDS011;5414;59.782;16.378;2023-01-10T05:42:44;3.33;;;2.67;;
10725;SDS011;5414;59.782;16.378;2023-01-10T05:45:10;4.80;;;3.00;;
10725;SDS011;5414;59.782;16.378;2023-01-10T05:47:36;3.77;;;2.90;;
10725;SDS011;5414;59.782;16.378;2023-01-10T05:50:02;3.70;;;2.43;;
10725;SDS011;5414;59.782;16.378;2023-01-10T05:52:28;4.63;;;2.90;;
10725;SDS011;5414;59.782;16.378;2023-01-10T05:54:54;3.37;;;2.83;;
10725;SDS011;5414;59.782;16.378;2023-01-10T05:57:20;4.57;;;3.07;;
10725;SDS011;5414;59.782;16.378;2023-01-10T05:59:48;7.80;;;2.93;;
10725;SDS011;5414;59.782;16.378;2023-01-10T06:02:14;6.37;;;3.50;;
10725;SDS011;5414;59.782;16.378;2023-01-10T06:04:40;24.20;;;4.07;;
10725;SDS011;5414;59.782;16.378;2023-01-10T06:07:06;10.10;;;3.53;;
10725;SDS011;5414;59.782;16.378;2023-01-10T06:09:32;16.87;;;4.03;;
10725;SDS011;5414;59.782;16.378;2023-01-10T06:11:58;8.47;;;3.30;;
10725;SDS011;5414;59.782;16.378;2023-01-10T06:14:24;26.17;;;4.40;;
10725;SDS011;5414;59.782;16.378;2023-01-10T06:16:50;4.57;;;3.20;;
10725;SDS011;5414;59.782;16.378;2023-01-10T06:19:16;13.77;;;4.07;;
10725;SDS011;5414;59.782;16.378;2023-01-10T06:21:42;9.83;;;3.30;;
10725;SDS011;5414;59.782;16.378;2023-01-10T06:24:08;7.47;;;3.30;;
10725;SDS011;5414;59.782;16.378;2023-01-10T06:26:35;26.27;;;4.37;;
10725;SDS011;5414;59.782;16.378;2023-01-10T06:29:01;4.70;;;3.30;;
10725;SDS011;5414;59.782;16.378;2023-01-10T06:31:27;6.07;;;3.37;;
10725;SDS011;5414;59.782;16.378;2023-01-10T06:33:53;11.40;;;3.50;;
10725;SDS011;5414;59.782;16.378;2023-01-10T06:36:19;11.87;;;3.50;;
10725;SDS011;5414;59.782;16.378;2023-01-10T06:38:45;8.33;;;3.27;;
10725;SDS011;5414;59.782;16.378;2023-01-10T06:41:11;4.90;;;2.90;;
10725;SDS011;5414;59.782;16.378;2023-01-10T06:43:40;3.93;;;3.03;;
10725;SDS011;5414;59.782;16.378;2023-01-10T06:46:06;3.90;;;2.90;;
10725;SDS011;5414;59.782;16.378;2023-01-10T06:48:37;5.10;;;2.97;;
10725;SDS011;5414;59.782;16.378;2023-01-10T06:51:03;10.83;;;2.97;;
10725;SDS011;5414;59.782;16.378;2023-01-10T06:53:30;3.00;;;2.60;;
10725;SDS011;5414;59.782;16.378;2023-01-10T06:55:56;5.27;;;2.83;;
10725;SDS011;5414;59.782;16.378;2023-01-10T06:58:22;13.13;;;3.50;;
10725;SDS011;5414;59.782;16.378;2023-01-10T07:00:49;7.87;;;3.00;;
10725;SDS011;5414;59.782;16.378;2023-01-10T07:03:15;9.53;;;3.33;;
10725;SDS011;5414;59.782;16.378;2023-01-10T07:05:41;3.63;;;2.67;;
10725;SDS011;5414;59.782;16.378;2023-01-10T07:08:07;4.37;;;2.60;;
10725;SDS011;5414;59.782;16.378;2023-01-10T07:10:33;3.30;;;2.70;;
10725;SDS011;5414;59.782;16.378;2023-01-10T07:12:59;6.53;;;3.10;;
10725;SDS011;5414;59.782;16.378;2023-01-10T07:15:25;6.23;;;3.20;;
10725;SDS011;5414;59.782;16.378;2023-01-10T07:17:52;5.33;;;2.87;;
10725;SDS011;5414;59.782;16.378;2023-01-10T07:20:18;6.60;;;3.10;;
10725;SDS011;5414;59.782;16.378;2023-01-10T07:22:51;9.27;;;3.37;;
10725;SDS011;5414;59.782;16.378;2023-01-10T07:25:18;17.03;;;3.70;;
10725;SDS011;5414;59.782;16.378;2023-01-10T07:27:44;5.23;;;3.10;;
10725;SDS011;5414;59.782;16.378;2023-01-10T07:30:10;31.43;;;4.27;;
10725;SDS011;5414;59.782;16.378;2023-01-10T07:32:37;8.50;;;2.53;;
10725;SDS011;5414;59.782;16.378;2023-01-10T07:35:04;4.23;;;2.40;;
10725;SDS011;5414;59.782;16.378;2023-01-10T07:37:30;14.83;;;3.40;;
10725;SDS011;5414;59.782;16.378;2023-01-10T07:39:56;3.77;;;2.67;;
10725;SDS011;5414;59.782;16.378;2023-01-10T07:42:23;22.40;;;4.07;;
10725;SDS011;5414;59.782;16.378;2023-01-10T07:44:49;18.37;;;3.97;;
10725;SDS011;5414;59.782;16.378;2023-01-10T07:47:15;34.07;;;5.40;;
10725;SDS011;5414;59.782;16.378;2023-01-10T07:49:41;4.80;;;2.90;;
10725;SDS011;5414;59.782;16.378;2023-01-10T07:52:07;16.00;;;3.37;;
10725;SDS011;5414;59.782;16.378;2023-01-10T07:54:33;25.87;;;4.07;;
10725;SDS011;5414;59.782;16.378;2023-01-10T07:57:00;13.73;;;3.47;;
10725;SDS011;5414;59.782;16.378;2023-01-10T07:59:26;44.53;;;5.87;;
10725;SDS011;5414;59.782;16.378;2023-01-10T08:01:52;9.27;;;2.90;;
10725;SDS011;5414;59.782;16.378;2023-01-10T08:04:18;4.53;;;3.17;;
10725;SDS011;5414;59.782;16.378;2023-01-10T08:06:44;12.20;;;3.30;;
10725;SDS011;5414;59.782;16.378;2023-01-10T08:09:10;4.97;;;3.13;;
10725;SDS011;5414;59.782;16.378;2023-01-10T08:11:36;3.27;;;2.57;;
10725;SDS011;5414;59.782;16.378;2023-01-10T08:14:02;4.03;;;2.70;;
10725;SDS011;5414;59.782;16.378;2023-01-10T08:16:28;3.70;;;2.30;;
10725;SDS011;5414;59.782;16.378;2023-01-10T08:18:54;4.07;;;2.87;;
10725;SDS011;5414;59.782;16.378;2023-01-10T08:21:20;2.80;;;2.20;;
10725;SDS011;5414;59.782;16.378;2023-01-10T08:23:46;4.33;;;2.60;;
10725;SDS011;5414;59.782;16.378;2023-01-10T08:26:12;3.67;;;2.40;;
10725;SDS011;5414;59.782;16.378;2023-01-10T08:28:38;2.70;;;2.27;;
10725;SDS011;5414;59.782;16.378;2023-01-10T08:31:07;4.23;;;2.70;;
10725;SDS011;5414;59.782;16.378;2023-01-10T08:33:36;4.43;;;2.83;;
10725;SDS011;5414;59.782;16.378;2023-01-10T08:36:02;4.30;;;3.00;;
10725;SDS011;5414;59.782;16.378;2023-01-10T08:38:28;4.23;;;2.47;;
10725;SDS011;5414;59.782;16.378;2023-01-10T08:40:57;3.60;;;2.50;;
10725;SDS011;5414;59.782;16.378;2023-01-10T08:43:23;4.70;;;3.27;;
10725;SDS011;5414;59.782;16.378;2023-01-10T08:45:49;6.77;;;3.50;;
10725;SDS011;5414;59.782;16.378;2023-01-10T08:48:15;4.47;;;2.77;;
10725;SDS011;5414;59.782;16.378;2023-01-10T08:50:41;3.57;;;2.80;;
10725;SDS011;5414;59.782;16.378;2023-01-10T08:53:07;3.97;;;2.70;;
10725;SDS011;5414;59.782;16.378;2023-01-10T08:55:33;3.47;;;2.67;;
10725;SDS011;5414;59.782;16.378;2023-01-10T08:58:00;4.47;;;3.07;;
10725;SDS011;5414;59.782;16.378;2023-01-10T09:00:27;4.03;;;2.63;;
10725;SDS011;5414;59.782;16.378;2023-01-10T09:02:53;3.30;;;2.40;;
10725;SDS011;5414;59.782;16.378;2023-01-10T09:05:19;5.50;;;3.23;;
10725;SDS011;5414;59.782;16.378;2023-01-10T09:07:45;4.07;;;2.60;;
10725;SDS011;5414;59.782;16.378;2023-01-10T09:10:12;3.77;;;2.83;;
10725;SDS011;5414;59.782;16.378;2023-01-10T09:12:38;3.70;;;2.40;;
10725;SDS011;5414;59.782;16.378;2023-01-10T09:15:23;3.60;;;2.40;;
10725;SDS011;5414;59.782;16.378;2023-01-10T09:17:51;2.87;;;2.07;;
10725;SDS011;5414;59.782;16.378;2023-01-10T09:20:17;3.80;;;2.53;;
10725;SDS011;5414;59.782;16.378;2023-01-10T09:22:43;3.17;;;2.37;;
10725;SDS011;5414;59.782;16.378;2023-01-10T09:25:09;3.90;;;2.30;;
10725;SDS011;5414;59.782;16.378;2023-01-10T09:27:35;2.53;;;2.17;;
10725;SDS011;5414;59.782;16.378;2023-01-10T09:30:02;4.47;;;2.10;;
10725;SDS011;5414;59.782;16.378;2023-01-10T09:32:28;3.53;;;2.47;;
10725;SDS011;5414;59.782;16.378;2023-01-10T09:34:54;3.97;;;2.60;;
10725;SDS011;5414;59.782;16.378;2023-01-10T09:37:20;4.67;;;2.33;;
10725;SDS011;5414;59.782;16.378;2023-01-10T09:39:46;3.63;;;2.43;;
10725;SDS011;5414;59.782;16.378;2023-01-10T09:47:41;3.43;;;2.30;;
10725;SDS011;5414;59.782;16.378;2023-01-10T09:50:18;4.03;;;2.40;;
10725;SDS011;5414;59.782;16.378;2023-01-10T09:52:51;4.30;;;2.67;;
10725;SDS011;5414;59.782;16.378;2023-01-10T09:57:44;5.20;;;2.60;;
10725;SDS011;5414;59.782;16.378;2023-01-10T10:00:56;3.80;;;2.20;;
10725;SDS011;5414;59.782;16.378;2023-01-10T10:02:57;4.80;;;2.77;;
10725;SDS011;5414;59.782;16.378;2023-01-10T10:05:23;3.70;;;2.43;;
10725;SDS011;5414;59.782;16.378;2023-01-10T10:07:55;9.03;;;2.50;;
10725;SDS011;5414;59.782;16.378;2023-01-10T10:10:23;5.13;;;2.50;;
10725;SDS011;5414;59.782;16.378;2023-01-10T10:17:43;6.00;;;3.03;;
10725;SDS011;5414;59.782;16.378;2023-01-10T10:28:00;4.23;;;2.70;;
10725;SDS011;5414;59.782;16.378;2023-01-10T10:33:09;7.23;;;2.80;;
10725;SDS011;5414;59.782;16.378;2023-01-10T10:35:40;4.50;;;3.00;;
10725;SDS011;5414;59.782;16.378;2023-01-10T10:38:09;8.50;;;3.60;;
10725;SDS011;5414;59.782;16.378;2023-01-10T10:40:38;4.30;;;3.00;;
10725;SDS011;5414;59.782;16.378;2023-01-10T10:43:29;6.80;;;3.30;;
10725;SDS011;5414;59.782;16.378;2023-01-10T10:48:30;7.23;;;3.63;;
10725;SDS011;5414;59.782;16.378;2023-01-10T10:53:41;11.80;;;3.53;;
10725;SDS011;5414;59.782;16.378;2023-01-10T10:56:10;7.63;;;3.67;;
10725;SDS011;5414;59.782;16.378;2023-01-10T10:58:38;19.10;;;4.50;;
10725;SDS011;5414;59.782;16.378;2023-01-10T11:01:04;14.63;;;3.63;;
10725;SDS011;5414;59.782;16.378;2023-01-10T11:03:46;11.53;;;4.13;;
10725;SDS011;5414;59.782;16.378;2023-01-10T11:06:14;10.90;;;3.63;;
10725;SDS011;5414;59.782;16.378;2023-01-10T11:08:42;25.30;;;4.27;;
10725;SDS011;5414;59.782;16.378;2023-01-10T11:11:19;28.93;;;4.17;;
10725;SDS011;5414;59.782;16.378;2023-01-10T11:14:07;14.63;;;4.30;;
10725;SDS011;5414;59.782;16.378;2023-01-10T11:16:34;6.30;;;3.00;;
10725;SDS011;5414;59.782;16.378;2023-01-10T11:21:40;5.10;;;2.97;;
10725;SDS011;5414;59.782;16.378;2023-01-10T11:26:45;8.00;;;3.97;;
10725;SDS011;5414;59.782;16.378;2023-01-10T11:31:40;4.63;;;3.13;;
10725;SDS011;5414;59.782;16.378;2023-01-10T11:34:23;7.37;;;3.67;;
10725;SDS011;5414;59.782;16.378;2023-01-10T11:37:03;4.37;;;3.27;;
10725;SDS011;5414;59.782;16.378;2023-01-10T11:39:30;6.27;;;3.20;;
10725;SDS011;5414;59.782;16.378;2023-01-10T11:41:56;4.73;;;3.00;;
10725;SDS011;5414;59.782;16.378;2023-01-10T11:44:27;4.43;;;3.23;;
10725;SDS011;5414;59.782;16.378;2023-01-10T11:46:55;4.00;;;2.90;;
10725;SDS011;5414;59.782;16.378;2023-01-10T11:49:29;3.87;;;3.03;;
10725;SDS011;5414;59.782;16.378;2023-01-10T11:51:57;4.17;;;3.07;;
10725;SDS011;5414;59.782;16.378;2023-01-10T11:54:25;4.67;;;3.17;;
10725;SDS011;5414;59.782;16.378;2023-01-10T11:59:24;3.33;;;2.70;;
10725;SDS011;5414;59.782;16.378;2023-01-10T12:04:27;3.77;;;2.80;;
10725;SDS011;5414;59.782;16.378;2023-01-10T12:07:00;4.33;;;3.20;;
10725;SDS011;5414;59.782;16.378;2023-01-10T12:09:38;3.33;;;2.83;;
10725;SDS011;5414;59.782;16.378;2023-01-10T12:12:10;3.17;;;2.80;;
10725;SDS011;5414;59.782;16.378;2023-01-10T12:14:38;4.33;;;3.00;;
10725;SDS011;5414;59.782;16.378;2023-01-10T12:17:04;3.70;;;2.90;;
10725;SDS011;5414;59.782;16.378;2023-01-10T12:19:30;3.37;;;2.80;;
10725;SDS011;5414;59.782;16.378;2023-01-10T12:21:58;3.87;;;3.10;;
10725;SDS011;5414;59.782;16.378;2023-01-10T12:24:26;3.43;;;2.83;;
10725;SDS011;5414;59.782;16.378;2023-01-10T12:26:53;4.17;;;3.10;;
10725;SDS011;5414;59.782;16.378;2023-01-10T12:29:20;5.00;;;3.03;;
10725;SDS011;5414;59.782;16.378;2023-01-10T12:31:48;4.93;;;3.00;;
10725;SDS011;5414;59.782;16.378;2023-01-10T12:34:16;10.07;;;3.70;;
10725;SDS011;5414;59.782;16.378;2023-01-10T12:41:52;9.70;;;4.13;;
10725;SDS011;5414;59.782;16.378;2023-01-10T12:44:44;17.23;;;4.13;;
10725;SDS011;5414;59.782;16.378;2023-01-10T12:47:18;29.40;;;5.07;;
10725;SDS011;5414;59.782;16.378;2023-01-10T12:49:54;10.23;;;3.63;;
10725;SDS011;5414;59.782;16.378;2023-01-10T12:52:30;8.93;;;4.70;;
10725;SDS011;5414;59.782;16.378;2023-01-10T12:54:57;23.53;;;4.83;;
10725;SDS011;5414;59.782;16.378;2023-01-10T12:57:29;34.97;;;5.33;;
10725;SDS011;5414;59.782;16.378;2023-01-10T12:59:56;9.13;;;4.40;;
10725;SDS011;5414;59.782;16.378;2023-01-10T13:02:24;9.47;;;4.73;;
10725;SDS011;5414;59.782;16.378;2023-01-10T13:04:52;7.50;;;4.07;;
10725;SDS011;5414;59.782;16.378;2023-01-10T13:07:21;17.87;;;5.17;;
10725;SDS011;5414;59.782;16.378;2023-01-10T13:09:48;7.27;;;4.57;;
10725;SDS011;5414;59.782;16.378;2023-01-10T13:22:39;6.90;;;4.33;;
10725;SDS011;5414;59.782;16.378;2023-01-10T13:25:05;8.37;;;5.27;;
10725;SDS011;5414;59.782;16.378;2023-01-10T13:27:32;7.73;;;5.03;;
10725;SDS011;5414;59.782;16.378;2023-01-10T13:29:58;8.03;;;4.83;;
10725;SDS011;5414;59.782;16.378;2023-01-10T13:32:34;7.93;;;4.97;;
10725;SDS011;5414;59.782;16.378;2023-01-10T13:35:11;7.63;;;4.87;;
10725;SDS011;5414;59.782;16.378;2023-01-10T13:37:38;7.87;;;4.77;;
10725;SDS011;5414;59.782;16.378;2023-01-10T13:40:05;11.90;;;5.67;;
10725;SDS011;5414;59.782;16.378;2023-01-10T13:42:32;7.70;;;4.97;;
10725;SDS011;5414;59.782;16.378;2023-01-10T13:45:18;8.43;;;4.83;;
10725;SDS011;5414;59.782;16.378;2023-01-10T13:52:54;6.53;;;5.00;;
10725;SDS011;5414;59.782;16.378;2023-01-10T14:00:46;8.20;;;5.23;;
10725;SDS011;5414;59.782;16.378;2023-01-10T14:03:44;9.27;;;5.07;;
10725;SDS011;5414;59.782;16.378;2023-01-10T14:06:18;6.53;;;4.83;;
10725;SDS011;5414;59.782;16.378;2023-01-10T14:08:52;5.90;;;4.60;;
10725;SDS011;5414;59.782;16.378;2023-01-10T14:11:19;6.13;;;4.63;;
10725;SDS011;5414;59.782;16.378;2023-01-10T14:13:51;6.73;;;4.80;;
10725;SDS011;5414;59.782;16.378;2023-01-10T14:18:53;6.93;;;4.73;;
10725;SDS011;5414;59.782;16.378;2023-01-10T14:21:23;6.87;;;4.23;;
10725;SDS011;5414;59.782;16.378;2023-01-10T14:23:50;6.40;;;4.27;;
10725;SDS011;5414;59.782;16.378;2023-01-10T14:26:28;6.37;;;4.83;;
10725;SDS011;5414;59.782;16.378;2023-01-10T14:28:56;5.90;;;4.43;;
10725;SDS011;5414;59.782;16.378;2023-01-10T14:31:24;6.43;;;4.37;;
10725;SDS011;5414;59.782;16.378;2023-01-10T14:33:50;5.80;;;4.00;;
10725;SDS011;5414;59.782;16.378;2023-01-10T14:36:19;4.90;;;3.77;;
10725;SDS011;5414;59.782;16.378;2023-01-10T14:38:47;6.93;;;4.03;;
10725;SDS011;5414;59.782;16.378;2023-01-10T14:41:16;5.23;;;3.70;;
10725;SDS011;5414;59.782;16.378;2023-01-10T14:43:52;4.63;;;4.13;;
10725;SDS011;5414;59.782;16.378;2023-01-10T14:46:19;5.50;;;4.03;;
10725;SDS011;5414;59.782;16.378;2023-01-10T14:48:48;3.80;;;3.37;;
10725;SDS011;5414;59.782;16.378;2023-01-10T14:51:27;3.97;;;3.43;;
10725;SDS011;5414;59.782;16.378;2023-01-10T14:54:00;6.97;;;4.20;;
10725;SDS011;5414;59.782;16.378;2023-01-10T14:56:37;4.57;;;3.33;;
10725;SDS011;5414;59.782;16.378;2023-01-10T15:01:52;5.90;;;2.97;;
10725;SDS011;5414;59.782;16.378;2023-01-10T15:04:20;3.63;;;3.00;;
10725;SDS011;5414;59.782;16.378;2023-01-10T15:06:51;4.17;;;3.40;;
10725;SDS011;5414;59.782;16.378;2023-01-10T15:09:17;4.63;;;2.70;;
10725;SDS011;5414;59.782;16.378;2023-01-10T15:11:44;3.93;;;2.60;;
10725;SDS011;5414;59.782;16.378;2023-01-10T15:14:10;2.57;;;2.10;;
10725;SDS011;5414;59.782;16.378;2023-01-10T15:16:42;4.57;;;2.40;;
10725;SDS011;5414;59.782;16.378;2023-01-10T15:19:11;4.80;;;2.30;;
10725;SDS011;5414;59.782;16.378;2023-01-10T15:21:40;2.50;;;2.03;;
10725;SDS011;5414;59.782;16.378;2023-01-10T15:26:51;2.10;;;1.80;;
10725;SDS011;5414;59.782;16.378;2023-01-10T15:29:20;4.00;;;1.77;;
10725;SDS011;5414;59.782;16.378;2023-01-10T15:31:46;2.67;;;1.90;;
10725;SDS011;5414;59.782;16.378;2023-01-10T15:34:14;1.90;;;1.70;;
10725;SDS011;5414;59.782;16.378;2023-01-10T15:36:50;2.93;;;1.70;;
10725;SDS011;5414;59.782;16.378;2023-01-10T15:39:20;1.93;;;1.50;;
10725;SDS011;5414;59.782;16.378;2023-01-10T15:41:47;3.13;;;1.70;;
10725;SDS011;5414;59.782;16.378;2023-01-10T15:44:55;1.77;;;1.20;;
10725;SDS011;5414;59.782;16.378;2023-01-10T15:47:02;1.73;;;1.37;;
10725;SDS011;5414;59.782;16.378;2023-01-10T15:49:29;1.30;;;1.00;;
10725;SDS011;5414;59.782;16.378;2023-01-10T15:51:55;2.37;;;1.20;;
10725;SDS011;5414;59.782;16.378;2023-01-10T15:59:21;1.90;;;1.10;;
10725;SDS011;5414;59.782;16.378;2023-01-10T16:04:35;1.77;;;1.27;;
10725;SDS011;5414;59.782;16.378;2023-01-10T16:07:05;1.90;;;1.37;;
10725;SDS011;5414;59.782;16.378;2023-01-10T16:09:32;1.43;;;1.30;;
10725;SDS011;5414;59.782;16.378;2023-01-10T16:12:00;1.27;;;1.17;;
10725;SDS011;5414;59.782;16.378;2023-01-10T16:14:45;2.63;;;1.30;;
10725;SDS011;5414;59.782;16.378;2023-01-10T16:17:11;1.20;;;1.00;;
10725;SDS011;5414;59.782;16.378;2023-01-10T16:19:37;1.50;;;1.10;;
10725;SDS011;5414;59.782;16.378;2023-01-10T16:22:03;3.10;;;0.90;;
10725;SDS011;5414;59.782;16.378;2023-01-10T16:24:31;1.63;;;1.00;;
10725;SDS011;5414;59.782;16.378;2023-01-10T16:26:57;1.43;;;1.00;;
10725;SDS011;5414;59.782;16.378;2023-01-10T16:29:26;1.97;;;1.10;;
10725;SDS011;5414;59.782;16.378;2023-01-10T16:31:52;3.17;;;0.90;;
10725;SDS011;5414;59.782;16.378;2023-01-10T16:34:20;2.37;;;1.10;;
10725;SDS011;5414;59.782;16.378;2023-01-10T16:36:46;1.63;;;1.00;;
10725;SDS011;5414;59.782;16.378;2023-01-10T16:41:38;1.70;;;0.90;;
10725;SDS011;5414;59.782;16.378;2023-01-10T16:44:23;1.83;;;0.90;;
10725;SDS011;5414;59.782;16.378;2023-01-10T16:46:49;1.90;;;0.87;;
10725;SDS011;5414;59.782;16.378;2023-01-10T16:49:17;1.00;;;0.83;;
10725;SDS011;5414;59.782;16.378;2023-01-10T16:51:44;1.83;;;0.87;;
10725;SDS011;5414;59.782;16.378;2023-01-10T16:54:17;3.57;;;1.20;;
10725;SDS011;5414;59.782;16.378;2023-01-10T16:56:44;1.80;;;1.20;;
10725;SDS011;5414;59.782;16.378;2023-01-10T16:59:10;2.27;;;0.80;;
10725;SDS011;5414;59.782;16.378;2023-01-10T17:01:38;4.00;;;1.30;;